SVA1423 OEMA-OEJN
Flight info
| Callsign | SVA1423 |
|---|---|
| Flight time | 0h 49m |
| Altitude | 25000 |
| Route | SISUD B544 NOMDA |
| Aircraft | A20N/M-SDE2E3FGHIRWXY/LB1 |
Departure
| Time | 2026-04-26 01:42 |
|---|---|
| Airport | Prince Mohammad Bin Abdulaziz Airport (OEMA) |
Arrival
| Time | 2026-04-26 02:32 |
|---|---|
| Airport | King Abdulaziz International Airport (OEJN) |
| Time | Latitude | Longitude | Altitude | Speed | Heading |
|---|---|---|---|---|---|
| 2026-04-26 01:22 | 24.55250 | 39.71335 | 2093 ft | 0 kts | 78° |
| 2026-04-26 01:33 | 24.55248 | 39.71323 | 2093 ft | 2 kts | 81° |
| 2026-04-26 01:33 | 24.55246 | 39.71303 | 2093 ft | 3 kts | 87° |
| 2026-04-26 01:33 | 24.55247 | 39.71281 | 2093 ft | 3 kts | 97° |
| 2026-04-26 01:34 | 24.55251 | 39.71259 | 2093 ft | 3 kts | 114° |
| 2026-04-26 01:34 | 24.55262 | 39.71241 | 2093 ft | 3 kts | 136° |
| 2026-04-26 01:34 | 24.55279 | 39.71227 | 2093 ft | 3 kts | 155° |
| 2026-04-26 01:34 | 24.55295 | 39.71221 | 2094 ft | 2 kts | 164° |
| 2026-04-26 01:35 | 24.55306 | 39.71218 | 2094 ft | 2 kts | 167° |
| 2026-04-26 01:35 | 24.55317 | 39.71215 | 2094 ft | 2 kts | 169° |
| 2026-04-26 01:35 | 24.55318 | 39.71215 | 2094 ft | 0 kts | 169° |
| 2026-04-26 01:37 | 24.55307 | 39.71217 | 2094 ft | 4 kts | 169° |
| 2026-04-26 01:37 | 24.55259 | 39.71212 | 2093 ft | 8 kts | 221° |
| 2026-04-26 01:38 | 24.55236 | 39.71133 | 2092 ft | 12 kts | 259° |
| 2026-04-26 01:38 | 24.55191 | 39.71050 | 2090 ft | 13 kts | 195° |
| 2026-04-26 01:38 | 24.55107 | 39.71064 | 2089 ft | 15 kts | 168° |
| 2026-04-26 01:38 | 24.54994 | 39.71087 | 2087 ft | 18 kts | 170° |
| 2026-04-26 01:39 | 24.54865 | 39.71115 | 2085 ft | 16 kts | 168° |
| 2026-04-26 01:39 | 24.54742 | 39.71142 | 2082 ft | 19 kts | 168° |
| 2026-04-26 01:39 | 24.54596 | 39.71173 | 2078 ft | 22 kts | 169° |
| 2026-04-26 01:39 | 24.54440 | 39.71207 | 2075 ft | 20 kts | 169° |
| 2026-04-26 01:40 | 24.54301 | 39.71236 | 2071 ft | 19 kts | 169° |
| 2026-04-26 01:40 | 24.54194 | 39.71258 | 2072 ft | 16 kts | 168° |
| 2026-04-26 01:40 | 24.54111 | 39.71275 | 2071 ft | 13 kts | 170° |
| 2026-04-26 01:40 | 24.54005 | 39.71297 | 2069 ft | 18 kts | 169° |
| 2026-04-26 01:41 | 24.53917 | 39.71253 | 2067 ft | 10 kts | 259° |
| 2026-04-26 01:41 | 24.53903 | 39.71171 | 2067 ft | 13 kts | 259° |
| 2026-04-26 01:41 | 24.53960 | 39.71115 | 2068 ft | 13 kts | 348° |
| 2026-04-26 01:41 | 24.54212 | 39.71062 | 2072 ft | 78 kts | 349° |
| 2026-04-26 01:42 | 24.55014 | 39.70893 | 2089 ft | 152 kts | 349° |
| 2026-04-26 01:42 | 24.56163 | 39.70633 | 2625 ft | 172 kts | 348° |
| 2026-04-26 01:42 | 24.57360 | 39.70348 | 3452 ft | 189 kts | 349° |
| 2026-04-26 01:42 | 24.58751 | 39.70071 | 3658 ft | 208 kts | 350° |
| 2026-04-26 01:43 | 24.60273 | 39.69776 | 3816 ft | 236 kts | 350° |
| 2026-04-26 01:43 | 24.61949 | 39.69436 | 3973 ft | 249 kts | 349° |
| 2026-04-26 01:43 | 24.63645 | 39.69079 | 4114 ft | 248 kts | 349° |
| 2026-04-26 01:43 | 24.65333 | 39.68673 | 4232 ft | 249 kts | 340° |
| 2026-04-26 01:44 | 24.66768 | 39.67635 | 4360 ft | 251 kts | 311° |
| 2026-04-26 01:44 | 24.67566 | 39.65941 | 4475 ft | 252 kts | 282° |
| 2026-04-26 01:44 | 24.67550 | 39.64016 | 4509 ft | 255 kts | 261° |
| 2026-04-26 01:44 | 24.67260 | 39.62055 | 4571 ft | 268 kts | 261° |
| 2026-04-26 01:45 | 24.66955 | 39.60001 | 5092 ft | 280 kts | 261° |
| 2026-04-26 01:45 | 24.66650 | 39.57899 | 6135 ft | 279 kts | 261° |
| 2026-04-26 01:45 | 24.66350 | 39.55786 | 7085 ft | 279 kts | 261° |
| 2026-04-26 01:45 | 24.66054 | 39.53674 | 8065 ft | 279 kts | 260° |
| 2026-04-26 01:46 | 24.65758 | 39.51563 | 8956 ft | 282 kts | 260° |
| 2026-04-26 01:46 | 24.65460 | 39.49433 | 9349 ft | 282 kts | 260° |
| 2026-04-26 01:46 | 24.65162 | 39.47301 | 9612 ft | 282 kts | 260° |
| 2026-04-26 01:46 | 24.64860 | 39.45166 | 9814 ft | 283 kts | 259° |
| 2026-04-26 01:47 | 24.64559 | 39.43033 | 9933 ft | 282 kts | 259° |
| 2026-04-26 01:47 | 24.64256 | 39.40890 | 9975 ft | 286 kts | 259° |
| 2026-04-26 01:47 | 24.63952 | 39.38731 | 9971 ft | 288 kts | 259° |
| 2026-04-26 01:47 | 24.63456 | 39.36537 | 9975 ft | 311 kts | 245° |
| 2026-04-26 01:48 | 24.62208 | 39.34521 | 10333 ft | 327 kts | 224° |
| 2026-04-26 01:48 | 24.60364 | 39.33123 | 11241 ft | 326 kts | 205° |
| 2026-04-26 01:48 | 24.58178 | 39.32510 | 12206 ft | 327 kts | 186° |
| 2026-04-26 01:48 | 24.55888 | 39.32665 | 13081 ft | 332 kts | 177° |
| 2026-04-26 01:49 | 24.53588 | 39.32955 | 13951 ft | 333 kts | 177° |
| 2026-04-26 01:49 | 24.51265 | 39.33258 | 14644 ft | 338 kts | 177° |
| 2026-04-26 01:49 | 24.48920 | 39.33563 | 15410 ft | 340 kts | 178° |
| 2026-04-26 01:49 | 24.46556 | 39.33866 | 16113 ft | 344 kts | 179° |
| 2026-04-26 01:50 | 24.44156 | 39.34169 | 16832 ft | 348 kts | 179° |
| 2026-04-26 01:50 | 24.41734 | 39.34474 | 17501 ft | 353 kts | 179° |
| 2026-04-26 01:50 | 24.39277 | 39.34782 | 18212 ft | 356 kts | 180° |
| 2026-04-26 01:50 | 24.36802 | 39.35091 | 18834 ft | 360 kts | 180° |
| 2026-04-26 01:51 | 24.34288 | 39.35402 | 19328 ft | 367 kts | 180° |
| 2026-04-26 01:51 | 24.31740 | 39.35718 | 19910 ft | 370 kts | 180° |
| 2026-04-26 01:51 | 24.29171 | 39.36037 | 20503 ft | 374 kts | 180° |
| 2026-04-26 01:51 | 24.26602 | 39.36357 | 21071 ft | 378 kts | 180° |
| 2026-04-26 01:52 | 24.23961 | 39.36686 | 21610 ft | 383 kts | 180° |
| 2026-04-26 01:52 | 24.21307 | 39.37017 | 22213 ft | 385 kts | 180° |
| 2026-04-26 01:52 | 24.18628 | 39.37351 | 22764 ft | 390 kts | 180° |
| 2026-04-26 01:52 | 24.15909 | 39.37688 | 23298 ft | 395 kts | 180° |
| 2026-04-26 01:53 | 24.13159 | 39.38029 | 23753 ft | 399 kts | 180° |
| 2026-04-26 01:53 | 24.10384 | 39.38372 | 24177 ft | 403 kts | 180° |
| 2026-04-26 01:53 | 24.07618 | 39.38716 | 24585 ft | 407 kts | 180° |
| 2026-04-26 01:53 | 24.04782 | 39.39067 | 24838 ft | 412 kts | 180° |
| 2026-04-26 01:54 | 24.01927 | 39.39424 | 24949 ft | 412 kts | 180° |
| 2026-04-26 01:54 | 23.99075 | 39.39779 | 24989 ft | 413 kts | 181° |
| 2026-04-26 01:54 | 23.96212 | 39.40133 | 24988 ft | 414 kts | 181° |
| 2026-04-26 01:54 | 23.93343 | 39.40488 | 24993 ft | 413 kts | 181° |
| 2026-04-26 01:55 | 23.90492 | 39.40841 | 24990 ft | 412 kts | 181° |
| 2026-04-26 01:55 | 23.87640 | 39.41193 | 24988 ft | 412 kts | 180° |
| 2026-04-26 01:55 | 23.84785 | 39.41544 | 24988 ft | 413 kts | 180° |
| 2026-04-26 01:55 | 23.81935 | 39.41896 | 24993 ft | 413 kts | 180° |
| 2026-04-26 01:56 | 23.79115 | 39.42240 | 24981 ft | 412 kts | 181° |
| 2026-04-26 01:56 | 23.76281 | 39.42328 | 24969 ft | 405 kts | 189° |
| 2026-04-26 01:56 | 23.73509 | 39.41995 | 24982 ft | 398 kts | 197° |
| 2026-04-26 01:56 | 23.70845 | 39.41272 | 24978 ft | 392 kts | 204° |
| 2026-04-26 01:57 | 23.68237 | 39.40352 | 24971 ft | 394 kts | 204° |
| 2026-04-26 01:57 | 23.65628 | 39.39443 | 24963 ft | 393 kts | 203° |
| 2026-04-26 01:57 | 23.63018 | 39.38540 | 24957 ft | 394 kts | 203° |
| 2026-04-26 01:57 | 23.60405 | 39.37638 | 24954 ft | 394 kts | 203° |
| 2026-04-26 01:58 | 23.57787 | 39.36734 | 24947 ft | 395 kts | 203° |
| 2026-04-26 01:58 | 23.55163 | 39.35827 | 24946 ft | 394 kts | 203° |
| 2026-04-26 01:58 | 23.52549 | 39.34923 | 24957 ft | 394 kts | 204° |
| 2026-04-26 01:58 | 23.49936 | 39.34020 | 24934 ft | 394 kts | 204° |
| 2026-04-26 01:59 | 23.47325 | 39.33118 | 24934 ft | 394 kts | 204° |
| 2026-04-26 01:59 | 23.44707 | 39.32213 | 24938 ft | 394 kts | 204° |
| 2026-04-26 01:59 | 23.42127 | 39.31323 | 24907 ft | 394 kts | 204° |
| 2026-04-26 01:59 | 23.39510 | 39.30420 | 24915 ft | 394 kts | 203° |
| 2026-04-26 02:00 | 23.36901 | 39.29521 | 24920 ft | 394 kts | 203° |
| 2026-04-26 02:00 | 23.34286 | 39.28620 | 24919 ft | 394 kts | 203° |
| 2026-04-26 02:00 | 23.31671 | 39.27719 | 24908 ft | 394 kts | 203° |
| 2026-04-26 02:00 | 23.29056 | 39.26819 | 24909 ft | 394 kts | 203° |
| 2026-04-26 02:01 | 23.26444 | 39.25920 | 24907 ft | 394 kts | 203° |
| 2026-04-26 02:01 | 23.23824 | 39.25019 | 24894 ft | 394 kts | 203° |
| 2026-04-26 02:01 | 23.21213 | 39.24121 | 24895 ft | 394 kts | 203° |
| 2026-04-26 02:01 | 23.18592 | 39.23220 | 24888 ft | 395 kts | 203° |
| 2026-04-26 02:02 | 23.15971 | 39.22319 | 24895 ft | 395 kts | 203° |
| 2026-04-26 02:02 | 23.13350 | 39.21419 | 24885 ft | 395 kts | 203° |
| 2026-04-26 02:02 | 23.10734 | 39.20521 | 24887 ft | 395 kts | 203° |
| 2026-04-26 02:02 | 23.08112 | 39.19621 | 24887 ft | 395 kts | 203° |
| 2026-04-26 02:03 | 23.05487 | 39.18721 | 24881 ft | 395 kts | 203° |
| 2026-04-26 02:03 | 23.02905 | 39.17835 | 24881 ft | 395 kts | 203° |
| 2026-04-26 02:03 | 23.00279 | 39.16935 | 24882 ft | 395 kts | 203° |
| 2026-04-26 02:03 | 22.97662 | 39.16039 | 24881 ft | 395 kts | 203° |
| 2026-04-26 02:04 | 22.95031 | 39.15137 | 24874 ft | 396 kts | 203° |
| 2026-04-26 02:04 | 22.92400 | 39.14236 | 24872 ft | 396 kts | 203° |
| 2026-04-26 02:04 | 22.89776 | 39.13339 | 24877 ft | 396 kts | 203° |
| 2026-04-26 02:04 | 22.87145 | 39.12439 | 24871 ft | 396 kts | 203° |
| 2026-04-26 02:05 | 22.84514 | 39.11538 | 24869 ft | 396 kts | 204° |
| 2026-04-26 02:05 | 22.81869 | 39.10667 | 24867 ft | 398 kts | 200° |
| 2026-04-26 02:05 | 22.79179 | 39.10074 | 24868 ft | 403 kts | 194° |
| 2026-04-26 02:05 | 22.76369 | 39.09802 | 24865 ft | 408 kts | 188° |
| 2026-04-26 02:06 | 22.73515 | 39.09839 | 24846 ft | 411 kts | 185° |
| 2026-04-26 02:06 | 22.70646 | 39.09920 | 24865 ft | 412 kts | 185° |
| 2026-04-26 02:06 | 22.68747 | 39.09979 | 24865 ft | 412 kts | 185° |
| 2026-04-26 02:06 | 22.65878 | 39.10077 | 24860 ft | 412 kts | 185° |
| 2026-04-26 02:07 | 22.63005 | 39.10177 | 24860 ft | 412 kts | 185° |
| 2026-04-26 02:07 | 22.60135 | 39.10275 | 24862 ft | 412 kts | 185° |
| 2026-04-26 02:07 | 22.57266 | 39.10371 | 24854 ft | 412 kts | 185° |
| 2026-04-26 02:07 | 22.54396 | 39.10466 | 24859 ft | 412 kts | 185° |
| 2026-04-26 02:08 | 22.51532 | 39.10561 | 24858 ft | 412 kts | 185° |
| 2026-04-26 02:08 | 22.48663 | 39.10625 | 24854 ft | 411 kts | 186° |
| 2026-04-26 02:08 | 22.45803 | 39.10634 | 24856 ft | 412 kts | 187° |
| 2026-04-26 02:08 | 22.42922 | 39.10631 | 24858 ft | 413 kts | 187° |
| 2026-04-26 02:09 | 22.40049 | 39.10633 | 24858 ft | 412 kts | 186° |
| 2026-04-26 02:09 | 22.37179 | 39.10641 | 24849 ft | 412 kts | 186° |
| 2026-04-26 02:09 | 22.34314 | 39.10652 | 24856 ft | 412 kts | 186° |
| 2026-04-26 02:09 | 22.31481 | 39.10667 | 24828 ft | 408 kts | 186° |
| 2026-04-26 02:10 | 22.28671 | 39.10686 | 24748 ft | 397 kts | 186° |
| 2026-04-26 02:10 | 22.25949 | 39.10705 | 24591 ft | 385 kts | 187° |
| 2026-04-26 02:10 | 22.23288 | 39.10721 | 24211 ft | 379 kts | 187° |
| 2026-04-26 02:10 | 22.20651 | 39.10731 | 23556 ft | 378 kts | 186° |
| 2026-04-26 02:11 | 22.18013 | 39.10738 | 22527 ft | 379 kts | 186° |
| 2026-04-26 02:11 | 22.15375 | 39.10746 | 21494 ft | 379 kts | 185° |
| 2026-04-26 02:11 | 22.12735 | 39.10757 | 20486 ft | 380 kts | 184° |
| 2026-04-26 02:11 | 22.10089 | 39.10989 | 19513 ft | 384 kts | 176° |
| 2026-04-26 02:12 | 22.07503 | 39.11610 | 18589 ft | 387 kts | 168° |
| 2026-04-26 02:12 | 22.04956 | 39.12580 | 17582 ft | 388 kts | 164° |
| 2026-04-26 02:12 | 22.02432 | 39.13590 | 16550 ft | 385 kts | 164° |
| 2026-04-26 02:12 | 21.99921 | 39.14590 | 15558 ft | 383 kts | 164° |
| 2026-04-26 02:13 | 21.97427 | 39.15579 | 14595 ft | 380 kts | 164° |
| 2026-04-26 02:13 | 21.94956 | 39.16557 | 13648 ft | 378 kts | 163° |
| 2026-04-26 02:13 | 21.92493 | 39.17529 | 12702 ft | 374 kts | 163° |
| 2026-04-26 02:13 | 21.90084 | 39.18482 | 12090 ft | 362 kts | 162° |
| 2026-04-26 02:14 | 21.87771 | 39.19398 | 11633 ft | 346 kts | 162° |
| 2026-04-26 02:14 | 21.85552 | 39.20277 | 11169 ft | 333 kts | 162° |
| 2026-04-26 02:14 | 21.83442 | 39.21111 | 10726 ft | 321 kts | 162° |
| 2026-04-26 02:14 | 21.81373 | 39.21928 | 10295 ft | 311 kts | 162° |
| 2026-04-26 02:15 | 21.79368 | 39.22717 | 9863 ft | 301 kts | 162° |
| 2026-04-26 02:15 | 21.77424 | 39.23479 | 9406 ft | 293 kts | 162° |
| 2026-04-26 02:15 | 21.75537 | 39.24218 | 8928 ft | 285 kts | 162° |
| 2026-04-26 02:15 | 21.73695 | 39.24941 | 8459 ft | 278 kts | 162° |
| 2026-04-26 02:16 | 21.71893 | 39.25647 | 7962 ft | 274 kts | 162° |
| 2026-04-26 02:16 | 21.70115 | 39.26348 | 7430 ft | 271 kts | 161° |
| 2026-04-26 02:16 | 21.68353 | 39.27045 | 6921 ft | 269 kts | 161° |
| 2026-04-26 02:16 | 21.66605 | 39.27737 | 6416 ft | 267 kts | 161° |
| 2026-04-26 02:17 | 21.64871 | 39.28425 | 5888 ft | 264 kts | 161° |
| 2026-04-26 02:17 | 21.63169 | 39.29098 | 5373 ft | 263 kts | 161° |
| 2026-04-26 02:17 | 21.61454 | 39.29773 | 4832 ft | 261 kts | 161° |
| 2026-04-26 02:17 | 21.59750 | 39.30441 | 4313 ft | 260 kts | 161° |
| 2026-04-26 02:18 | 21.58050 | 39.31105 | 3780 ft | 259 kts | 161° |
| 2026-04-26 02:18 | 21.56358 | 39.31767 | 3305 ft | 257 kts | 161° |
| 2026-04-26 02:18 | 21.54720 | 39.32410 | 3098 ft | 244 kts | 160° |
| 2026-04-26 02:18 | 21.53183 | 39.33013 | 3031 ft | 226 kts | 160° |
| 2026-04-26 02:19 | 21.51706 | 39.33593 | 3031 ft | 228 kts | 160° |
| 2026-04-26 02:19 | 21.50227 | 39.34173 | 3029 ft | 226 kts | 160° |
| 2026-04-26 02:19 | 21.48746 | 39.34753 | 3034 ft | 226 kts | 160° |
| 2026-04-26 02:19 | 21.47270 | 39.35332 | 3035 ft | 225 kts | 160° |
| 2026-04-26 02:20 | 21.45815 | 39.35902 | 3037 ft | 224 kts | 160° |
| 2026-04-26 02:20 | 21.44348 | 39.36478 | 3038 ft | 225 kts | 160° |
| 2026-04-26 02:20 | 21.42881 | 39.37053 | 3038 ft | 225 kts | 160° |
| 2026-04-26 02:20 | 21.41411 | 39.37630 | 3040 ft | 225 kts | 160° |
| 2026-04-26 02:21 | 21.39939 | 39.38209 | 3040 ft | 224 kts | 160° |
| 2026-04-26 02:21 | 21.38474 | 39.38784 | 3041 ft | 225 kts | 160° |
| 2026-04-26 02:21 | 21.37001 | 39.39346 | 3041 ft | 224 kts | 166° |
| 2026-04-26 02:21 | 21.35469 | 39.39329 | 3047 ft | 224 kts | 199° |
| 2026-04-26 02:22 | 21.34191 | 39.38414 | 3046 ft | 224 kts | 232° |
| 2026-04-26 02:22 | 21.33500 | 39.36911 | 3047 ft | 226 kts | 249° |
| 2026-04-26 02:22 | 21.32986 | 39.35343 | 3045 ft | 225 kts | 250° |
| 2026-04-26 02:22 | 21.32555 | 39.33761 | 3038 ft | 215 kts | 266° |
| 2026-04-26 02:23 | 21.32793 | 39.32251 | 3040 ft | 201 kts | 297° |
| 2026-04-26 02:23 | 21.33687 | 39.31105 | 3038 ft | 198 kts | 327° |
| 2026-04-26 02:23 | 21.34894 | 39.30552 | 3028 ft | 182 kts | 341° |
| 2026-04-26 02:23 | 21.36113 | 39.30094 | 3033 ft | 187 kts | 340° |
| 2026-04-26 02:24 | 21.37331 | 39.29628 | 3030 ft | 187 kts | 339° |
| 2026-04-26 02:24 | 21.38563 | 39.29146 | 3020 ft | 183 kts | 339° |
| 2026-04-26 02:24 | 21.39712 | 39.28693 | 3031 ft | 174 kts | 339° |
| 2026-04-26 02:24 | 21.40863 | 39.28238 | 3026 ft | 175 kts | 339° |
| 2026-04-26 02:25 | 21.42006 | 39.27787 | 3030 ft | 175 kts | 339° |
| 2026-04-26 02:25 | 21.43171 | 39.27327 | 3038 ft | 183 kts | 339° |
| 2026-04-26 02:25 | 21.44338 | 39.26867 | 3056 ft | 185 kts | 339° |
| 2026-04-26 02:25 | 21.45586 | 39.26373 | 3030 ft | 188 kts | 339° |
| 2026-04-26 02:26 | 21.46750 | 39.25915 | 3027 ft | 168 kts | 339° |
| 2026-04-26 02:26 | 21.47790 | 39.25504 | 3020 ft | 152 kts | 339° |
| 2026-04-26 02:26 | 21.48808 | 39.25102 | 3026 ft | 156 kts | 339° |
| 2026-04-26 02:26 | 21.49787 | 39.24715 | 3024 ft | 142 kts | 339° |
| 2026-04-26 02:27 | 21.50707 | 39.24352 | 3029 ft | 142 kts | 339° |
| 2026-04-26 02:27 | 21.51638 | 39.23984 | 2988 ft | 143 kts | 339° |
| 2026-04-26 02:27 | 21.52556 | 39.23621 | 2841 ft | 142 kts | 339° |
| 2026-04-26 02:27 | 21.53475 | 39.23258 | 2668 ft | 140 kts | 339° |
| 2026-04-26 02:28 | 21.54387 | 39.22898 | 2500 ft | 140 kts | 340° |
| 2026-04-26 02:28 | 21.55297 | 39.22538 | 2324 ft | 138 kts | 340° |
| 2026-04-26 02:28 | 21.56199 | 39.22182 | 2150 ft | 137 kts | 340° |
| 2026-04-26 02:28 | 21.57093 | 39.21829 | 1977 ft | 137 kts | 340° |
| 2026-04-26 02:29 | 21.57991 | 39.21473 | 1801 ft | 137 kts | 340° |
| 2026-04-26 02:29 | 21.58884 | 39.21121 | 1628 ft | 136 kts | 340° |
| 2026-04-26 02:29 | 21.59766 | 39.20772 | 1452 ft | 134 kts | 340° |
| 2026-04-26 02:29 | 21.60648 | 39.20423 | 1281 ft | 135 kts | 340° |
| 2026-04-26 02:30 | 21.61516 | 39.20079 | 1102 ft | 131 kts | 340° |
| 2026-04-26 02:30 | 21.62373 | 39.19741 | 953 ft | 133 kts | 339° |
| 2026-04-26 02:30 | 21.63224 | 39.19406 | 784 ft | 127 kts | 339° |
| 2026-04-26 02:30 | 21.64066 | 39.19071 | 637 ft | 129 kts | 339° |
| 2026-04-26 02:31 | 21.64920 | 39.18733 | 468 ft | 131 kts | 341° |
| 2026-04-26 02:31 | 21.65765 | 39.18399 | 296 ft | 127 kts | 339° |
| 2026-04-26 02:31 | 21.66578 | 39.18076 | 110 ft | 126 kts | 340° |
| 2026-04-26 02:31 | 21.67379 | 39.17756 | 41 ft | 115 kts | 339° |
| 2026-04-26 02:32 | 21.68030 | 39.17500 | 31 ft | 74 kts | 340° |
| 2026-04-26 02:32 | 21.68332 | 39.17382 | 29 ft | 32 kts | 340° |
| 2026-04-26 02:32 | 21.68570 | 39.17288 | 28 ft | 36 kts | 340° |
| 2026-04-26 02:32 | 21.68790 | 39.17184 | 27 ft | 31 kts | 321° |
| 2026-04-26 02:33 | 21.68882 | 39.17079 | 29 ft | 16 kts | 311° |
| 2026-04-26 02:33 | 21.68921 | 39.17021 | 30 ft | 7 kts | 298° |
| 2026-04-26 02:33 | 21.68930 | 39.16964 | 31 ft | 9 kts | 253° |
| 2026-04-26 02:33 | 21.68893 | 39.16938 | 31 ft | 4 kts | 183° |
| 2026-04-26 02:34 | 21.68851 | 39.16947 | 31 ft | 8 kts | 159° |
| 2026-04-26 02:34 | 21.68793 | 39.16971 | 31 ft | 8 kts | 159° |
| 2026-04-26 02:34 | 21.68746 | 39.16991 | 31 ft | 6 kts | 159° |
| 2026-04-26 02:34 | 21.68694 | 39.17012 | 31 ft | 10 kts | 160° |
| 2026-04-26 02:35 | 21.68619 | 39.17041 | 31 ft | 13 kts | 160° |
| 2026-04-26 02:35 | 21.68522 | 39.17060 | 31 ft | 11 kts | 199° |
| 2026-04-26 02:35 | 21.68455 | 39.17016 | 32 ft | 13 kts | 184° |
| 2026-04-26 02:35 | 21.68362 | 39.17045 | 32 ft | 14 kts | 160° |
| 2026-04-26 02:36 | 21.68293 | 39.17072 | 32 ft | 12 kts | 160° |
| 2026-04-26 02:36 | 21.68211 | 39.17104 | 32 ft | 13 kts | 160° |
| 2026-04-26 02:36 | 21.68117 | 39.17140 | 31 ft | 14 kts | 160° |
| 2026-04-26 02:36 | 21.68049 | 39.17167 | 30 ft | 11 kts | 159° |
| 2026-04-26 02:37 | 21.67964 | 39.17178 | 32 ft | 13 kts | 175° |
| 2026-04-26 02:37 | 21.67900 | 39.17212 | 32 ft | 3 kts | 203° |
| 2026-04-26 02:37 | 21.67930 | 39.17155 | 31 ft | 24 kts | 295° |
| 2026-04-26 02:37 | 21.67930 | 39.17067 | 31 ft | 9 kts | 247° |
| 2026-04-26 02:38 | 21.67909 | 39.17013 | 32 ft | 8 kts | 247° |
| 2026-04-26 02:38 | 21.67885 | 39.16944 | 32 ft | 12 kts | 250° |
| 2026-04-26 02:38 | 21.67871 | 39.16904 | 31 ft | 2 kts | 250° |
| 2026-04-26 02:38 | 21.67859 | 39.16867 | 31 ft | 9 kts | 249° |
| 2026-04-26 02:39 | 21.67809 | 39.16806 | 32 ft | 12 kts | 192° |
| 2026-04-26 02:39 | 21.67717 | 39.16785 | 31 ft | 16 kts | 223° |
| 2026-04-26 02:39 | 21.67682 | 39.16707 | 32 ft | 9 kts | 249° |
| 2026-04-26 02:39 | 21.67655 | 39.16632 | 33 ft | 7 kts | 242° |
| 2026-04-26 02:40 | 21.67637 | 39.16636 | 33 ft | 4 kts | 144° |
| 2026-04-26 02:40 | 21.67565 | 39.16691 | 33 ft | 16 kts | 158° |
| 2026-04-26 02:40 | 21.67463 | 39.16727 | 32 ft | 14 kts | 164° |
| 2026-04-26 02:40 | 21.67384 | 39.16752 | 32 ft | 12 kts | 164° |
| 2026-04-26 02:41 | 21.67300 | 39.16776 | 32 ft | 11 kts | 168° |
| 2026-04-26 02:41 | 21.67227 | 39.16801 | 32 ft | 9 kts | 138° |
| 2026-04-26 02:41 | 21.67220 | 39.16881 | 32 ft | 13 kts | 72° |
| 2026-04-26 02:41 | 21.67253 | 39.16965 | 32 ft | 11 kts | 55° |
| 2026-04-26 02:42 | 21.67301 | 39.17028 | 32 ft | 10 kts | 46° |
| 2026-04-26 02:42 | 21.67345 | 39.17077 | 32 ft | 11 kts | 45° |
| 2026-04-26 02:42 | 21.67345 | 39.17120 | 32 ft | 7 kts | 128° |
| 2026-04-26 02:42 | 21.67312 | 39.17154 | 32 ft | 5 kts | 138° |
| 2026-04-26 02:43 | 21.67294 | 39.17171 | 32 ft | 0 kts | 137° |